Time;durP1;ratioP1;P1;durP2;ratioP2;P2;SDS_P1;SDS_P2;PMS_P1;PMS_P2;Temp;Humidity;BMP_temperature;BMP_pressure;BME280_temperature;BME280_humidity;BME280_pressure;Samples;Min_cycle;Max_cycle;Signal;HPM_P1;HPM_P2
2021/12/07 00:01:27;;;;;;;4.10;3.70;;;3.90;99.90;;;;;;6274033;22;20239;-54
2021/12/07 00:03:54;;;;;;;4.45;4.05;;;4.20;99.90;;;;;;6282741;22;20169;-53
2021/12/07 00:06:20;;;;;;;4.30;3.90;;;4.00;99.90;;;;;;6282381;22;20599;-54
2021/12/07 00:08:49;;;;;;;4.37;3.47;;;4.00;99.90;;;;;;6283852;22;20156;-54
2021/12/07 00:11:14;;;;;;;4.07;3.67;;;4.00;99.90;;;;;;6283434;22;20415;-54
2021/12/07 00:13:42;;;;;;;4.50;4.10;;;4.00;99.90;;;;;;6284190;22;20176;-54
2021/12/07 00:16:10;;;;;;;4.05;3.65;;;3.60;99.90;;;;;;6284583;22;20148;-54
2021/12/07 00:18:37;;;;;;;4.20;3.80;;;3.60;99.90;;;;;;6272192;22;20161;-54
2021/12/07 00:21:05;;;;;;;4.75;4.28;;;4.10;99.90;;;;;;6283764;22;20163;-54
2021/12/07 00:23:32;;;;;;;3.78;3.47;;;4.20;99.90;;;;;;6283303;22;20168;-54
2021/12/07 00:25:58;;;;;;;4.10;3.70;;;4.00;99.90;;;;;;6282916;22;20563;-54
2021/12/07 00:28:24;;;;;;;4.10;3.70;;;4.30;99.90;;;;;;6284123;22;20177;-54
2021/12/07 00:30:52;;;;;;;4.78;3.78;;;3.80;99.90;;;;;;6274616;22;20392;-53
2021/12/07 00:33:47;;;;;;;4.38;3.95;;;4.40;99.90;;;;;;6284717;22;20172;-54
2021/12/07 00:36:06;;;;;;;4.05;3.35;;;4.30;99.90;;;;;;6274097;22;20185;-53
2021/12/07 00:38:32;;;;;;;4.07;3.77;;;4.40;99.90;;;;;;6284610;22;20618;-54
2021/12/07 00:40:59;;;;;;;3.67;3.37;;;4.40;99.90;;;;;;6284081;22;20158;-53
2021/12/07 00:43:26;;;;;;;3.53;3.22;;;4.20;99.90;;;;;;6283315;22;20853;-54
2021/12/07 00:45:54;;;;;;;3.13;2.92;;;4.20;99.90;;;;;;6283771;22;20185;-53
2021/12/07 00:48:20;;;;;;;3.47;3.17;;;4.40;99.90;;;;;;6283703;22;20148;-54
2021/12/07 00:50:48;;;;;;;3.93;3.53;;;4.00;99.90;;;;;;6283743;22;20165;-53
2021/12/07 00:53:15;;;;;;;4.55;3.55;;;4.10;99.90;;;;;;6284739;22;20954;-54
2021/12/07 00:55:45;;;;;;;3.47;3.08;;;4.10;99.90;;;;;;6283997;22;20468;-54
2021/12/07 00:58:23;;;;;;;4.30;3.90;;;4.10;99.90;;;;;;6284208;22;20149;-54
2021/12/07 01:00:57;;;;;;;4.10;3.70;;;3.90;99.90;;;;;;6272520;22;20148;-53
2021/12/07 01:03:25;;;;;;;4.47;4.07;;;4.40;99.90;;;;;;6282732;22;20191;-54
2021/12/07 01:06:01;;;;;;;3.88;3.22;;;3.80;99.90;;;;;;6283212;22;20235;-54
2021/12/07 01:24:52;;;;;;;5.30;4.20;;;3.70;99.90;;;;;;6283105;22;20575;-54
2021/12/07 01:27:20;;;;;;;4.07;3.67;;;3.90;99.90;;;;;;6272845;22;20203;-54
2021/12/07 01:29:51;;;;;;;4.60;4.15;;;3.60;99.90;;;;;;6284036;22;20494;-54
2021/12/07 02:01:43;;;;;;;3.90;3.10;;;3.10;99.90;;;;;;6283564;22;20515;-54
2021/12/07 02:04:09;;;;;;;3.60;3.17;;;3.20;99.90;;;;;;6283819;22;20164;-53
2021/12/07 02:06:35;;;;;;;4.30;3.90;;;3.90;99.90;;;;;;6272820;22;20161;-54
2021/12/07 02:09:00;;;;;;;8.23;3.83;;;3.80;99.90;;;;;;6281901;22;20478;-54
2021/12/07 02:11:27;;;;;;;4.10;3.30;;;3.50;99.90;;;;;;6268920;22;20184;-53
2021/12/07 02:16:22;;;;;;;3.10;2.80;;;3.90;99.90;;;;;;6282804;22;20157;-53
2021/12/07 02:18:48;;;;;;;5.35;3.70;;;3.30;99.90;;;;;;6283529;22;20151;-54
2021/12/07 02:21:25;;;;;;;3.58;3.28;;;3.80;99.90;;;;;;6272544;22;20188;-54
2021/12/07 02:23:52;;;;;;;4.10;3.50;;;3.80;99.90;;;;;;6272217;22;20230;-54
2021/12/07 02:26:18;;;;;;;3.95;3.20;;;3.40;99.90;;;;;;6282696;22;20693;-54
2021/12/07 02:28:45;;;;;;;3.50;3.05;;;3.80;99.90;;;;;;6283525;22;20149;-54
2021/12/07 02:31:12;;;;;;;3.00;2.75;;;3.70;99.90;;;;;;6283630;22;20226;-54
2021/12/07 02:33:38;;;;;;;3.45;2.85;;;3.70;99.90;;;;;;6282992;22;20168;-54
2021/12/07 02:36:05;;;;;;;3.60;3.28;;;3.80;99.90;;;;;;6272590;22;20184;-54
2021/12/07 02:38:31;;;;;;;3.22;2.92;;;3.90;99.90;;;;;;6283457;22;20160;-54
2021/12/07 02:40:57;;;;;;;3.70;3.17;;;4.10;99.90;;;;;;6272797;22;20160;-53
2021/12/07 02:43:23;;;;;;;3.47;3.00;;;4.00;99.90;;;;;;6271953;22;20419;-54
2021/12/07 02:45:49;;;;;;;2.92;2.63;;;4.10;99.90;;;;;;6282316;22;20222;-54
2021/12/07 02:48:15;;;;;;;3.40;2.67;;;4.20;99.90;;;;;;6282736;22;20515;-54
2021/12/07 02:50:41;;;;;;;3.20;2.67;;;4.30;99.90;;;;;;6282917;22;20395;-54
2021/12/07 02:53:07;;;;;;;3.22;2.80;;;4.30;99.90;;;;;;6283726;22;20251;-53
2021/12/07 02:55:34;;;;;;;3.57;2.73;;;4.10;99.90;;;;;;6283121;22;20584;-54
2021/12/07 02:58:00;;;;;;;3.30;2.50;;;4.00;99.90;;;;;;6272897;22;20474;-54
2021/12/07 03:00:33;;;;;;;2.50;2.30;;;4.00;99.90;;;;;;6283270;22;20550;-54
2021/12/07 03:03:05;;;;;;;2.90;2.55;;;4.10;99.90;;;;;;6282171;22;20168;-53
2021/12/07 03:26:45;;;;;;;1.58;1.48;;;4.50;99.90;;;;;;6284317;22;20186;-54
2021/12/07 03:29:11;;;;;;;1.87;1.77;;;4.30;99.90;;;;;;6285340;22;20153;-54
2021/12/07 03:31:36;;;;;;;1.80;1.70;;;4.50;99.90;;;;;;6285168;22;20191;-53
2021/12/07 03:34:03;;;;;;;2.30;2.07;;;3.90;99.90;;;;;;6284603;22;20174;-54
2021/12/07 03:36:29;;;;;;;1.52;1.42;;;4.40;99.90;;;;;;6284843;22;20153;-54
2021/12/07 03:38:55;;;;;;;1.58;1.48;;;4.40;99.90;;;;;;6285259;22;20181;-53
2021/12/07 03:41:21;;;;;;;1.87;1.77;;;4.30;99.90;;;;;;6284602;22;20149;-54
2021/12/07 03:43:48;;;;;;;2.15;1.63;;;4.90;99.90;;;;;;6284408;22;20226;-53
2021/12/07 03:46:14;;;;;;;1.63;1.40;;;4.50;99.90;;;;;;6283814;22;20162;-54
2021/12/07 03:48:42;;;;;;;4.70;1.87;;;4.40;99.90;;;;;;6284469;22;20238;-54
2021/12/07 03:51:07;;;;;;;1.90;1.60;;;3.80;99.90;;;;;;6285075;22;20180;-54
2021/12/07 03:53:34;;;;;;;2.67;2.03;;;4.30;99.90;;;;;;6285313;22;20225;-53
2021/12/07 03:56:00;;;;;;;2.47;1.80;;;4.20;99.90;;;;;;6284741;22;20227;-54
2021/12/07 03:58:26;;;;;;;3.97;1.30;;;4.40;99.90;;;;;;6284449;22;20148;-54
2021/12/07 04:00:52;;;;;;;1.50;1.40;;;4.20;99.90;;;;;;6285165;22;20152;-53
2021/12/07 04:03:19;;;;;;;3.15;1.65;;;4.50;99.90;;;;;;6283640;22;20208;-54
2021/12/07 04:05:53;;;;;;;2.45;1.83;;;4.30;99.90;;;;;;6272604;22;20793;-53
2021/12/07 04:08:22;;;;;;;1.55;1.45;;;4.40;99.90;;;;;;6284532;22;20152;-54
2021/12/07 04:10:49;;;;;;;1.70;1.17;;;4.50;99.90;;;;;;6272778;22;20579;-53
2021/12/07 04:13:15;;;;;;;1.70;1.40;;;4.50;99.90;;;;;;6284671;22;20196;-53
2021/12/07 04:15:41;;;;;;;3.92;1.52;;;4.40;99.90;;;;;;6285010;22;20149;-54
2021/12/07 04:18:07;;;;;;;2.50;1.30;;;4.60;99.90;;;;;;6284587;22;20153;-53
2021/12/07 04:20:33;;;;;;;1.98;1.40;;;4.70;99.90;;;;;;6285047;22;20195;-53
2021/12/07 04:22:59;;;;;;;2.07;1.40;;;4.70;99.90;;;;;;6284010;22;20176;-54
2021/12/07 04:25:25;;;;;;;2.10;1.83;;;4.40;99.90;;;;;;6283267;22;20714;-54
2021/12/07 04:27:52;;;;;;;2.25;1.58;;;4.40;99.90;;;;;;6284065;22;20427;-54
2021/12/07 04:30:24;;;;;;;1.83;1.63;;;3.90;99.90;;;;;;6284163;22;20236;-54
2021/12/07 04:32:50;;;;;;;2.00;1.67;;;4.40;99.90;;;;;;6283888;22;20619;-54
2021/12/07 04:35:17;;;;;;;2.03;1.35;;;4.60;99.90;;;;;;6284674;22;20206;-54
2021/12/07 04:37:43;;;;;;;3.47;1.73;;;4.60;99.90;;;;;;6274127;22;20150;-54
2021/12/07 04:40:13;;;;;;;2.05;1.85;;;4.60;99.90;;;;;;6284234;22;20145;-53
2021/12/07 04:42:39;;;;;;;1.70;1.60;;;4.50;99.90;;;;;;6284449;22;20183;-54
2021/12/07 04:45:08;;;;;;;2.20;2.10;;;4.50;99.90;;;;;;6284024;22;20152;-54
2021/12/07 04:47:45;;;;;;;1.85;1.40;;;4.60;99.90;;;;;;6284222;22;20872;-54
2021/12/07 04:58:08;;;;;;;1.90;1.40;;;4.60;99.90;;;;;;6285118;22;20152;-53
2021/12/07 05:00:34;;;;;;;1.80;1.70;;;4.70;99.90;;;;;;6283492;22;20157;-53
2021/12/07 05:03:04;;;;;;;2.40;1.85;;;4.60;99.90;;;;;;6272216;22;20186;-53
2021/12/07 05:05:35;;;;;;;2.20;2.00;;;5.00;99.90;;;;;;6284134;22;20161;-54
2021/12/07 05:08:05;;;;;;;2.88;1.60;;;4.80;99.90;;;;;;6284042;22;20133;-54
2021/12/07 05:10:34;;;;;;;2.83;1.85;;;5.00;99.90;;;;;;6273365;22;20158;-53
2021/12/07 05:24:01;;;;;;;1.98;1.70;;;4.80;99.90;;;;;;6239293;22;20168;-54
2021/12/07 05:40:18;;;;;;;2.17;1.98;;;4.40;99.90;;;;;;6284156;22;20557;-53
2021/12/07 05:42:44;;;;;;;2.08;1.65;;;4.50;99.90;;;;;;6283856;22;20169;-54
2021/12/07 05:45:27;;;;;;;2.63;1.88;;;4.40;99.90;;;;;;6274338;22;20505;-54
2021/12/07 05:47:53;;;;;;;3.00;2.80;;;4.40;99.90;;;;;;6272476;22;20157;-54
2021/12/07 05:50:24;;;;;;;4.10;1.45;;;4.30;99.90;;;;;;6273522;22;20239;-54
2021/12/07 05:52:50;;;;;;;1.50;1.40;;;4.40;99.90;;;;;;6283132;22;20203;-54
2021/12/07 05:55:16;;;;;;;2.60;1.42;;;4.20;99.90;;;;;;6272466;22;20184;-53
2021/12/07 05:57:41;;;;;;;6.07;1.60;;;4.20;99.90;;;;;;6279994;22;20490;-51
2021/12/07 06:00:12;;;;;;;5.13;1.60;;;4.40;99.90;;;;;;6279750;22;20145;-52
2021/12/07 06:02:38;;;;;;;2.50;1.35;;;4.30;99.90;;;;;;6283268;22;20505;-51
2021/12/07 06:05:04;;;;;;;4.33;2.80;;;4.10;99.90;;;;;;6282855;22;20608;-50
2021/12/07 06:07:30;;;;;;;1.85;1.75;;;4.20;99.90;;;;;;6283227;22;20618;-51
2021/12/07 06:09:55;;;;;;;3.13;2.20;;;4.20;99.90;;;;;;6282178;22;20585;-52
2021/12/07 06:12:21;;;;;;;4.33;2.23;;;4.40;99.90;;;;;;6284215;22;20177;-51
2021/12/07 06:14:47;;;;;;;3.60;2.10;;;4.10;99.90;;;;;;6282567;22;20442;-54
2021/12/07 06:17:13;;;;;;;4.40;2.53;;;4.50;99.90;;;;;;6282842;22;20229;-53
2021/12/07 06:19:39;;;;;;;3.63;2.20;;;4.60;99.90;;;;;;6281453;22;20150;-52
2021/12/07 06:22:05;;;;;;;3.22;2.20;;;4.50;99.90;;;;;;6280594;22;20224;-49
2021/12/07 06:24:32;;;;;;;3.72;2.47;;;4.50;99.90;;;;;;6271676;22;20500;-52
2021/12/07 06:26:58;;;;;;;2.20;2.00;;;4.10;99.90;;;;;;6282421;22;20157;-52
2021/12/07 06:29:24;;;;;;;3.63;2.28;;;4.70;99.90;;;;;;6272428;22;20235;-52
2021/12/07 06:31:53;;;;;;;4.20;2.23;;;4.70;99.90;;;;;;6272102;22;20182;-52
2021/12/07 06:34:20;;;;;;;5.07;3.40;;;4.90;99.90;;;;;;6282254;22;20412;-51
2021/12/07 06:36:46;;;;;;;2.90;2.38;;;4.90;99.90;;;;;;6271163;22;20464;-52
2021/12/07 06:39:12;;;;;;;3.95;2.63;;;4.70;99.90;;;;;;6282626;22;20145;-52
2021/12/07 06:41:38;;;;;;;5.00;2.58;;;4.70;99.90;;;;;;6282388;22;20155;-52
2021/12/07 06:44:04;;;;;;;4.10;2.80;;;5.00;99.90;;;;;;6272810;22;20213;-52
2021/12/07 06:46:30;;;;;;;13.10;2.77;;;5.00;99.90;;;;;;6281009;22;20214;-53
2021/12/07 06:48:56;;;;;;;3.77;2.70;;;4.90;99.90;;;;;;6270369;22;20811;-53
2021/12/07 06:51:22;;;;;;;2.87;2.67;;;5.00;99.90;;;;;;6282403;22;20429;-53
2021/12/07 06:53:48;;;;;;;6.38;4.00;;;4.80;99.90;;;;;;6272069;22;20182;-53
2021/12/07 06:56:14;;;;;;;5.97;3.37;;;5.30;99.90;;;;;;6281783;22;20156;-53
2021/12/07 06:58:39;;;;;;;5.30;2.90;;;5.50;99.90;;;;;;6281937;22;20149;-53
2021/12/07 07:01:07;;;;;;;7.20;4.40;;;5.30;99.90;;;;;;6271416;22;20383;-53
2021/12/07 07:03:36;;;;;;;4.35;3.10;;;5.30;99.90;;;;;;6281959;22;20276;-53
2021/12/07 07:06:03;;;;;;;3.25;2.70;;;5.10;99.90;;;;;;6271646;22;20518;-53
2021/12/07 07:08:29;;;;;;;2.90;2.58;;;4.50;99.90;;;;;;6282462;22;20180;-53
2021/12/07 07:10:55;;;;;;;4.13;1.92;;;4.60;99.90;;;;;;6279188;22;20153;-53
2021/12/07 07:13:20;;;;;;;2.88;2.22;;;5.20;99.90;;;;;;6281142;22;20201;-54
2021/12/07 07:15:46;;;;;;;4.10;2.30;;;4.70;99.90;;;;;;6271748;22;20525;-55
2021/12/07 07:18:12;;;;;;;4.40;2.20;;;5.40;99.90;;;;;;6282182;22;20498;-55
2021/12/07 07:20:38;;;;;;;4.63;3.00;;;4.90;99.90;;;;;;6283200;22;20167;-54
2021/12/07 07:23:05;;;;;;;2.57;1.60;;;5.90;99.90;;;;;;6281660;22;20617;-54
2021/12/07 07:25:31;;;;;;;2.75;2.30;;;5.40;99.90;;;;;;6281493;22;20361;-54
2021/12/07 07:27:58;;;;;;;8.48;2.03;;;5.40;99.90;;;;;;6271637;22;20151;-54
2021/12/07 07:30:24;;;;;;;7.18;2.70;;;5.50;99.90;;;;;;6270460;22;20151;-53
2021/12/07 07:32:50;;;;;;;5.22;2.97;;;5.60;99.90;;;;;;6284076;22;20185;-51
2021/12/07 07:35:17;;;;;;;5.68;4.13;;;5.30;99.90;;;;;;6283929;22;20598;-50
2021/12/07 07:37:44;;;;;;;4.90;2.50;;;5.40;99.90;;;;;;6273699;22;20179;-53
2021/12/07 07:40:14;;;;;;;2.13;1.88;;;5.40;99.90;;;;;;6283913;22;20221;-52
2021/12/07 07:42:40;;;;;;;4.13;2.20;;;5.30;99.90;;;;;;6283498;22;20164;-49
2021/12/07 07:45:06;;;;;;;4.00;2.80;;;5.30;99.90;;;;;;6283892;22;20158;-52
2021/12/07 07:47:32;;;;;;;3.65;2.17;;;5.50;99.90;;;;;;6283076;22;20385;-54
2021/12/07 07:49:58;;;;;;;3.40;2.60;;;5.00;99.90;;;;;;6283726;22;20166;-52
2021/12/07 07:52:24;;;;;;;5.37;3.23;;;4.90;99.90;;;;;;6273322;22;20890;-52
2021/12/07 07:54:49;;;;;;;4.73;2.67;;;5.30;99.90;;;;;;6283737;22;20149;-51
2021/12/07 07:57:15;;;;;;;3.33;2.50;;;5.70;99.90;;;;;;6273405;22;20602;-50
2021/12/07 07:59:41;;;;;;;3.60;2.93;;;5.30;99.90;;;;;;6283235;22;20505;-51
2021/12/07 08:02:07;;;;;;;5.20;2.97;;;5.50;99.90;;;;;;6272180;22;20263;-49
2021/12/07 08:04:33;;;;;;;3.90;2.80;;;5.50;99.90;;;;;;6274064;22;20217;-51
2021/12/07 08:06:59;;;;;;;4.60;3.33;;;5.60;99.90;;;;;;6274921;22;20238;-53
2021/12/07 08:09:25;;;;;;;5.78;2.83;;;5.50;99.90;;;;;;6275504;22;20397;-53
2021/12/07 08:11:52;;;;;;;4.73;2.50;;;5.70;99.90;;;;;;6284987;22;20232;-53
2021/12/07 08:14:18;;;;;;;4.75;2.88;;;5.70;99.90;;;;;;6284956;22;20457;-50
2021/12/07 08:16:45;;;;;;;4.00;2.50;;;5.70;99.90;;;;;;6273793;22;20155;-51
2021/12/07 08:19:10;;;;;;;3.35;2.25;;;5.30;99.90;;;;;;6273984;22;20386;-51
2021/12/07 08:21:36;;;;;;;3.50;2.10;;;5.50;99.90;;;;;;6275338;22;20160;-51
2021/12/07 08:24:02;;;;;;;2.87;1.77;;;5.50;99.90;;;;;;6284842;22;20883;-52
2021/12/07 08:26:28;;;;;;;5.05;2.35;;;5.70;99.90;;;;;;6275416;22;20296;-51
2021/12/07 08:28:56;;;;;;;4.00;1.77;;;5.90;99.90;;;;;;6275303;22;20609;-51
2021/12/07 08:31:23;;;;;;;4.57;1.83;;;6.00;99.90;;;;;;6275402;22;20183;-52
2021/12/07 08:33:49;;;;;;;4.07;2.20;;;5.70;99.90;;;;;;6272657;22;20572;-50
2021/12/07 08:36:15;;;;;;;6.30;3.80;;;5.20;99.90;;;;;;6285812;22;20567;-50
2021/12/07 08:38:41;;;;;;;4.03;2.23;;;5.90;99.90;;;;;;6284801;22;20157;-51
2021/12/07 08:41:06;;;;;;;7.60;2.17;;;6.20;99.90;;;;;;6274483;22;20382;-52
2021/12/07 08:43:34;;;;;;;2.60;2.20;;;6.10;99.90;;;;;;6285208;22;20430;-51
2021/12/07 08:46:01;;;;;;;4.03;2.55;;;6.20;99.90;;;;;;6284619;22;20900;-52
2021/12/07 08:48:28;;;;;;;6.35;2.00;;;6.20;99.90;;;;;;6284952;22;20158;-52
2021/12/07 08:50:55;;;;;;;2.95;1.77;;;6.40;99.90;;;;;;6274194;22;20291;-52
2021/12/07 08:53:23;;;;;;;5.93;1.95;;;6.20;99.90;;;;;;6274794;22;20245;-52
2021/12/07 09:01:21;;;;;;;3.03;1.55;;;6.70;99.90;;;;;;6283807;22;20185;-53
2021/12/07 09:03:47;;;;;;;4.40;1.60;;;6.50;99.90;;;;;;6281880;22;20172;-52
2021/12/07 09:06:14;;;;;;;4.10;2.10;;;6.20;99.90;;;;;;6272738;22;20541;-53
2021/12/07 09:08:40;;;;;;;2.95;1.80;;;6.60;99.90;;;;;;6283324;22;20226;-54
2021/12/07 09:11:07;;;;;;;1.95;1.40;;;6.90;99.90;;;;;;6282096;22;20617;-54
2021/12/07 09:13:34;;;;;;;6.30;2.05;;;6.70;99.90;;;;;;6272712;22;20176;-53
2021/12/07 09:16:00;;;;;;;2.25;1.27;;;6.80;99.90;;;;;;6270735;22;20163;-54
2021/12/07 09:18:26;;;;;;;4.03;2.20;;;7.00;99.90;;;;;;6282835;22;20206;-54
2021/12/07 09:20:52;;;;;;;3.90;2.40;;;7.10;99.90;;;;;;6268163;22;20478;-54
2021/12/07 09:23:18;;;;;;;4.32;2.13;;;7.10;99.90;;;;;;6282592;22;20403;-54
2021/12/07 09:25:44;;;;;;;6.93;2.20;;;7.20;99.90;;;;;;6279978;22;20156;-50
2021/12/07 09:28:11;;;;;;;7.43;2.97;;;7.90;99.90;;;;;;6271085;22;20171;-52
2021/12/07 09:30:38;;;;;;;3.67;2.00;;;7.90;99.90;;;;;;6281567;22;20650;-52
2021/12/07 09:33:04;;;;;;;3.08;1.70;;;8.40;99.90;;;;;;6282215;22;20180;-50
2021/12/07 09:35:30;;;;;;;2.53;1.50;;;9.00;98.90;;;;;;6282174;22;20203;-50
2021/12/07 09:37:56;;;;;;;4.00;1.50;;;9.20;98.20;;;;;;6281115;22;20660;-51
2021/12/07 09:40:24;;;;;;;3.40;3.03;;;9.60;96.80;;;;;;6282473;22;20678;-51
2021/12/07 09:42:51;;;;;;;3.55;2.50;;;9.90;96.50;;;;;;6272354;22;20410;-51
2021/12/07 09:45:18;;;;;;;2.65;1.50;;;9.70;96.10;;;;;;6281413;22;20209;-52
2021/12/07 09:47:44;;;;;;;3.63;1.42;;;9.40;95.30;;;;;;6270187;22;20157;-51
2021/12/07 09:50:14;;;;;;;2.35;1.65;;;9.70;95.80;;;;;;6283431;22;20186;-51
2021/12/07 09:52:42;;;;;;;3.17;2.10;;;9.60;94.90;;;;;;6281755;22;20634;-53
2021/12/07 09:55:08;;;;;;;4.03;1.80;;;10.40;93.60;;;;;;6271787;22;20162;-53
2021/12/07 09:57:34;;;;;;;4.07;1.65;;;10.50;92.50;;;;;;6282682;22;20623;-50
2021/12/07 10:00:00;;;;;;;2.60;1.93;;;10.30;92.00;;;;;;6283509;22;20225;-50
2021/12/07 10:02:26;;;;;;;5.22;1.35;;;10.20;92.10;;;;;;6281930;22;20474;-50
2021/12/07 10:04:52;;;;;;;2.07;1.20;;;10.10;92.40;;;;;;6282006;22;20231;-52
2021/12/07 10:07:18;;;;;;;1.47;1.27;;;9.10;93.20;;;;;;6270319;22;20570;-51
2021/12/07 10:09:44;;;;;;;4.97;1.75;;;9.10;93.80;;;;;;6269862;22;20157;-51
2021/12/07 10:12:18;;;;;;;2.37;1.20;;;9.00;94.70;;;;;;6282427;22;20646;-50
2021/12/07 10:14:44;;;;;;;3.20;1.75;;;8.70;95.10;;;;;;6283021;22;20194;-52
2021/12/07 10:17:10;;;;;;;5.60;1.47;;;8.50;95.30;;;;;;6282402;22;20157;-50
2021/12/07 10:19:43;;;;;;;2.05;1.38;;;8.20;95.90;;;;;;6270828;22;20153;-52
2021/12/07 10:22:13;;;;;;;6.07;1.60;;;8.30;95.60;;;;;;6281865;22;20215;-52
2021/12/07 10:24:48;;;;;;;6.22;1.85;;;8.50;95.60;;;;;;6282416;22;20149;-53
2021/12/07 10:27:32;;;;;;;1.73;1.30;;;8.90;95.20;;;;;;6282645;22;20146;-55
2021/12/07 10:29:59;;;;;;;2.45;1.98;;;9.90;94.10;;;;;;6282873;22;20195;-55
2021/12/07 10:32:25;;;;;;;3.03;1.98;;;11.20;92.50;;;;;;6270821;22;20215;-54
2021/12/07 10:34:51;;;;;;;1.93;1.27;;;11.60;88.80;;;;;;6270281;22;20179;-53
2021/12/07 10:37:18;;;;;;;3.33;1.87;;;12.00;87.70;;;;;;6282168;22;20432;-53
2021/12/07 10:39:51;;;;;;;2.72;1.40;;;10.80;88.30;;;;;;6272572;22;20178;-53
2021/12/07 10:42:22;;;;;;;1.92;1.40;;;11.10;89.40;;;;;;6283455;22;20135;-55
2021/12/07 10:44:48;;;;;;;1.77;1.30;;;11.40;89.50;;;;;;6282654;22;20475;-54
2021/12/07 10:47:19;;;;;;;6.68;3.88;;;12.20;85.90;;;;;;6281702;22;20156;-55
2021/12/07 10:49:51;;;;;;;1.90;1.30;;;12.00;83.40;;;;;;6281847;22;20159;-52
2021/12/07 10:52:39;;;;;;;4.55;1.02;;;12.10;84.60;;;;;;6281755;22;20179;-51
2021/12/07 10:55:15;;;;;;;4.80;1.90;;;12.00;83.60;;;;;;6281271;22;20152;-52
2021/12/07 10:57:54;;;;;;;3.40;1.25;;;11.60;83.50;;;;;;6281175;22;20201;-52
2021/12/07 11:00:28;;;;;;;4.20;1.65;;;11.70;82.80;;;;;;6282142;22;20455;-51
2021/12/07 11:02:59;;;;;;;2.10;1.30;;;11.60;81.30;;;;;;6281753;22;20171;-50
2021/12/07 11:05:32;;;;;;;4.20;1.33;;;11.80;82.00;;;;;;6271404;22;20174;-50
2021/12/07 11:07:58;;;;;;;1.75;1.30;;;11.30;82.00;;;;;;6282515;22;20142;-50
2021/12/07 11:10:30;;;;;;;3.95;1.23;;;11.50;81.30;;;;;;6282023;22;20201;-51
2021/12/07 11:13:05;;;;;;;1.55;1.10;;;10.80;78.00;;;;;;6281781;22;20185;-53
2021/12/07 11:15:33;;;;;;;4.10;2.20;;;10.70;80.20;;;;;;6272088;22;20147;-51
2021/12/07 11:18:09;;;;;;;2.13;1.33;;;11.00;83.10;;;;;;6271550;22;20162;-52
2021/12/07 11:20:36;;;;;;;1.40;1.08;;;11.10;81.20;;;;;;6271895;22;20156;-53
2021/12/07 11:23:16;;;;;;;2.00;1.30;;;11.00;80.20;;;;;;6281805;22;20502;-51
2021/12/07 11:31:41;;;;;;;1.92;1.50;;;11.90;78.50;;;;;;6281642;22;20179;-53
2021/12/07 11:34:15;;;;;;;4.15;1.40;;;11.80;78.80;;;;;;6271553;22;20671;-53
2021/12/07 11:36:43;;;;;;;3.33;2.15;;;12.10;77.50;;;;;;6282366;22;20152;-51
2021/12/07 11:39:30;;;;;;;2.83;1.50;;;11.60;77.80;;;;;;6283286;22;20155;-51
2021/12/07 11:42:36;;;;;;;2.75;1.20;;;11.50;76.80;;;;;;6284438;22;20157;-55
2021/12/07 11:45:08;;;;;;;2.85;1.23;;;10.90;77.70;;;;;;6266505;22;20177;-51
2021/12/07 11:47:58;;;;;;;3.15;1.30;;;10.50;79.30;;;;;;6284448;22;20169;-51
2021/12/07 11:50:49;;;;;;;6.70;1.88;;;10.10;80.80;;;;;;6266142;22;20171;-51
2021/12/07 11:53:24;;;;;;;4.70;1.50;;;9.90;84.40;;;;;;6284084;22;20623;-52
2021/12/07 11:55:57;;;;;;;6.30;3.70;;;9.30;86.10;;;;;;6273051;22;20164;-50
2021/12/07 11:58:24;;;;;;;2.63;1.27;;;9.20;87.30;;;;;;6283333;22;20125;-51
2021/12/07 12:00:54;;;;;;;3.03;1.98;;;8.70;87.50;;;;;;6283899;22;20149;-51
2021/12/07 12:03:22;;;;;;;6.50;2.40;;;8.50;88.70;;;;;;6283716;22;20176;-53
2021/12/07 12:05:49;;;;;;;3.40;1.45;;;8.50;90.20;;;;;;6283549;22;20222;-52
2021/12/07 12:08:19;;;;;;;6.43;2.30;;;8.10;90.70;;;;;;6284340;22;20618;-52
2021/12/07 12:10:56;;;;;;;2.72;1.38;;;8.00;91.70;;;;;;6271519;22;20163;-53
2021/12/07 12:13:42;;;;;;;1.55;1.35;;;8.20;92.40;;;;;;6273916;22;20195;-53
2021/12/07 12:16:28;;;;;;;3.58;1.92;;;7.40;92.40;;;;;;6283522;22;20141;-53
2021/12/07 12:19:17;;;;;;;3.65;1.73;;;8.10;92.90;;;;;;6283442;22;20144;-53
2021/12/07 12:22:00;;;;;;;3.50;2.60;;;8.30;93.40;;;;;;6284557;22;20267;-53
2021/12/07 12:24:47;;;;;;;11.45;1.70;;;8.30;93.10;;;;;;6283615;22;20246;-53
2021/12/07 12:27:18;;;;;;;4.05;1.77;;;8.60;92.60;;;;;;6282863;22;20476;-53
2021/12/07 12:29:47;;;;;;;3.70;1.30;;;8.40;91.80;;;;;;6283614;22;20555;-53
2021/12/07 12:32:13;;;;;;;2.55;1.40;;;8.60;91.80;;;;;;6283283;22;20207;-53
2021/12/07 12:34:48;;;;;;;2.25;1.55;;;8.60;91.70;;;;;;6273054;22;20214;-53
2021/12/07 12:37:20;;;;;;;2.17;1.45;;;8.30;91.70;;;;;;6284001;22;20222;-53
2021/12/07 12:40:04;;;;;;;3.30;1.20;;;8.20;92.60;;;;;;6283252;22;20156;-53
2021/12/07 12:42:38;;;;;;;2.28;1.23;;;8.40;92.90;;;;;;6283827;22;20168;-53
2021/12/07 12:45:30;;;;;;;3.38;1.38;;;8.20;92.40;;;;;;6283331;22;20226;-53
2021/12/07 12:48:17;;;;;;;2.60;1.20;;;8.50;92.40;;;;;;6283731;22;20129;-53
2021/12/07 12:50:42;;;;;;;1.95;1.40;;;8.50;92.30;;;;;;6272536;22;20168;-53
2021/12/07 12:53:18;;;;;;;3.43;1.40;;;8.70;92.10;;;;;;6284463;22;20512;-53
2021/12/07 12:55:53;;;;;;;2.60;1.17;;;8.80;92.30;;;;;;6282287;22;20132;-53
2021/12/07 12:58:37;;;;;;;2.25;1.30;;;8.90;91.10;;;;;;6282740;22;20147;-50
2021/12/07 13:01:08;;;;;;;1.13;1.00;;;9.00;89.60;;;;;;6273901;22;20149;-52
2021/12/07 13:03:43;;;;;;;3.75;1.35;;;8.70;89.60;;;;;;6285236;22;20172;-51
2021/12/07 13:06:30;;;;;;;1.15;1.00;;;8.60;89.80;;;;;;6285131;22;20155;-52
2021/12/07 13:08:58;;;;;;;5.03;1.58;;;8.50;88.60;;;;;;6196012;22;20167;-51
2021/12/07 13:11:49;;;;;;;3.05;1.70;;;8.40;88.60;;;;;;6274070;22;20507;-51
2021/12/07 13:14:24;;;;;;;2.08;1.00;;;8.70;89.60;;;;;;6215313;22;20193;-52
2021/12/07 13:17:00;;;;;;;3.03;1.42;;;8.80;89.30;;;;;;6285072;22;20147;-52
2021/12/07 13:19:28;;;;;;;3.88;1.40;;;8.50;89.20;;;;;;6284718;22;20667;-52
2021/12/07 13:21:56;;;;;;;1.10;1.00;;;8.40;89.70;;;;;;6284534;22;20152;-52
2021/12/07 13:24:44;;;;;;;2.25;1.45;;;8.60;89.70;;;;;;6274337;22;20208;-52
2021/12/07 13:27:15;;;;;;;2.25;1.10;;;8.50;90.40;;;;;;6284918;22;20152;-52
2021/12/07 13:29:51;;;;;;;2.15;1.13;;;8.00;90.40;;;;;;6285499;22;20182;-52
2021/12/07 13:32:18;;;;;;;3.20;1.20;;;8.60;91.10;;;;;;6284529;22;20221;-48
2021/12/07 13:34:43;;;;;;;4.80;1.85;;;8.40;91.10;;;;;;6285117;22;20231;-50
2021/12/07 13:37:14;;;;;;;3.13;1.60;;;8.30;91.30;;;;;;6284608;22;20176;-53
2021/12/07 13:39:44;;;;;;;3.25;1.58;;;8.30;91.40;;;;;;6284072;22;20144;-51
2021/12/07 13:42:09;;;;;;;3.17;1.38;;;8.20;91.20;;;;;;6273950;22;20152;-52
2021/12/07 13:44:38;;;;;;;1.53;1.10;;;8.10;91.00;;;;;;6272833;22;20156;-52
2021/12/07 13:47:19;;;;;;;2.25;1.45;;;7.60;91.40;;;;;;6284668;22;20232;-51
2021/12/07 13:49:48;;;;;;;5.05;1.25;;;7.90;92.10;;;;;;6275381;22;20240;-52
2021/12/07 13:52:21;;;;;;;2.45;1.20;;;7.80;92.80;;;;;;6275261;22;20187;-51
2021/12/07 13:54:50;;;;;;;3.45;1.33;;;7.70;93.20;;;;;;6285222;22;20148;-50
2021/12/07 13:57:19;;;;;;;1.80;1.27;;;7.50;93.60;;;;;;6282758;22;20151;-52
2021/12/07 14:00:00;;;;;;;2.58;1.40;;;7.30;95.20;;;;;;6283095;22;20623;-51
2021/12/07 14:02:26;;;;;;;2.80;1.40;;;7.40;94.20;;;;;;6282439;22;20152;-51
2021/12/07 14:05:10;;;;;;;4.53;1.50;;;7.40;94.30;;;;;;6270429;22;20603;-52
2021/12/07 14:07:36;;;;;;;5.07;1.65;;;7.30;94.30;;;;;;6271133;22;20152;-51
2021/12/07 14:10:27;;;;;;;4.47;1.52;;;7.30;94.60;;;;;;6282404;22;20232;-52
2021/12/07 14:12:54;;;;;;;2.00;1.55;;;7.40;94.90;;;;;;6272503;22;20192;-51
2021/12/07 14:15:25;;;;;;;2.85;1.40;;;7.50;94.80;;;;;;6271878;22;20182;-51
2021/12/07 14:18:07;;;;;;;6.28;1.40;;;7.20;94.90;;;;;;6281881;22;20153;-51
2021/12/07 14:20:40;;;;;;;1.95;1.05;;;7.20;94.60;;;;;;6282568;22;20129;-51
2021/12/07 14:23:29;;;;;;;2.13;1.40;;;6.70;93.20;;;;;;6282538;22;20194;-51
2021/12/07 14:26:10;;;;;;;11.88;7.53;;;7.00;93.40;;;;;;6281980;22;20572;-51
2021/12/07 14:28:47;;;;;;;8.70;6.85;;;7.10;93.90;;;;;;6272094;22;20153;-51
2021/12/07 14:31:26;;;;;;;2.20;1.65;;;7.10;94.10;;;;;;6271905;22;20151;-50
2021/12/07 14:33:56;;;;;;;4.20;1.65;;;7.10;94.30;;;;;;6272442;22;20176;-50
2021/12/07 14:36:27;;;;;;;3.67;1.20;;;7.10;94.30;;;;;;6269980;22;20205;-52
2021/12/07 14:38:56;;;;;;;3.00;1.23;;;7.00;94.00;;;;;;6271279;22;20164;-52
2021/12/07 14:41:25;;;;;;;3.05;1.20;;;7.20;93.30;;;;;;6269111;22;20160;-52
2021/12/07 14:43:52;;;;;;;2.55;1.63;;;7.40;92.90;;;;;;6282184;22;20230;-51
2021/12/07 14:46:19;;;;;;;4.60;2.00;;;7.20;93.10;;;;;;6271050;22;20443;-52
2021/12/07 14:48:46;;;;;;;3.42;1.50;;;7.00;93.10;;;;;;6281392;22;20148;-52
2021/12/07 14:51:21;;;;;;;3.63;1.40;;;6.90;92.90;;;;;;6269704;22;20507;-52
2021/12/07 14:53:51;;;;;;;3.72;1.00;;;6.80;92.60;;;;;;6281614;22;20176;-52
2021/12/07 14:56:19;;;;;;;1.65;1.13;;;6.90;93.20;;;;;;6281999;22;20143;-52
2021/12/07 14:58:47;;;;;;;3.75;0.90;;;6.50;92.50;;;;;;6281510;22;20155;-52
2021/12/07 15:01:36;;;;;;;1.13;0.95;;;6.70;92.20;;;;;;6271097;22;20160;-52